createdAt,value
2019-02-28T00:00:17.663Z,7.13
2019-02-28T00:01:17.687Z,7.07
2019-02-28T00:02:21.191Z,6.97
2019-02-28T00:03:17.600Z,6.73
2019-02-28T00:04:17.589Z,6.62
2019-02-28T00:05:17.571Z,6.56
2019-02-28T00:06:17.624Z,6.48
2019-02-28T00:07:17.922Z,6.55
2019-02-28T00:08:17.565Z,6.56
2019-02-28T00:09:17.538Z,6.64
2019-02-28T00:10:17.544Z,6.69
2019-02-28T00:11:17.517Z,6.61
2019-02-28T00:12:17.530Z,6.64
2019-02-28T00:13:21.423Z,6.67
2019-02-28T00:14:17.482Z,6.74
2019-02-28T00:15:17.465Z,6.70
2019-02-28T00:16:17.457Z,6.79
2019-02-28T00:17:17.516Z,6.89
2019-02-28T00:18:17.520Z,6.88
2019-02-28T00:19:17.431Z,7.02
2019-02-28T00:20:17.418Z,6.99
2019-02-28T00:21:17.466Z,7.12
2019-02-28T00:22:17.401Z,7.07
2019-02-28T00:23:19.212Z,7.10
2019-02-28T00:24:17.494Z,7.02
2019-02-28T00:25:17.350Z,7.10
2019-02-28T00:26:17.399Z,7.09
2019-02-28T00:27:20.963Z,7.09
2019-02-28T00:28:17.463Z,7.05
2019-02-28T00:29:17.345Z,7.10
2019-02-28T00:30:17.394Z,7.20
2019-02-28T00:31:17.319Z,7.21
2019-02-28T00:32:17.309Z,7.25
2019-02-28T00:33:17.266Z,7.23
2019-02-28T00:34:17.295Z,7.20
2019-02-28T00:35:17.247Z,7.15
2019-02-28T00:36:19.298Z,7.17
2019-02-28T00:37:17.247Z,7.20
2019-02-28T00:38:17.210Z,7.07
2019-02-28T00:39:17.236Z,7.13
2019-02-28T00:40:17.201Z,7.15
2019-02-28T00:41:17.199Z,6.99
2019-02-28T00:42:17.678Z,7.17
2019-02-28T00:43:17.209Z,7.20
2019-02-28T00:44:17.179Z,7.15
2019-02-28T00:45:17.188Z,6.99
2019-02-28T00:46:17.245Z,7.05
2019-02-28T00:47:17.189Z,7.05
2019-02-28T00:48:18.234Z,7.16
2019-02-28T00:49:17.135Z,7.09
2019-02-28T00:50:17.096Z,7.15
2019-02-28T00:51:17.081Z,7.02
2019-02-28T00:52:17.070Z,7.09
2019-02-28T00:53:17.093Z,6.99
2019-02-28T00:54:17.092Z,7.03
2019-02-28T00:55:17.028Z,6.99
2019-02-28T00:56:17.812Z,6.95
2019-02-28T00:57:17.007Z,6.95
2019-02-28T00:58:17.033Z,6.87
2019-02-28T00:59:16.985Z,6.88
2019-02-28T01:00:17.001Z,6.84
2019-02-28T01:01:16.965Z,6.87
2019-02-28T01:02:17.659Z,6.85
2019-02-28T01:03:16.951Z,6.87
2019-02-28T01:04:16.947Z,6.80
2019-02-28T01:05:16.987Z,6.85
2019-02-28T01:06:16.905Z,6.87
2019-02-28T01:07:17.023Z,6.87
2019-02-28T01:08:19.107Z,6.85
2019-02-28T01:09:17.878Z,6.91
2019-02-28T01:10:16.957Z,6.84
2019-02-28T01:11:16.857Z,6.80
2019-02-28T01:12:19.346Z,6.79
2019-02-28T01:13:16.836Z,6.87
2019-02-28T01:14:16.836Z,6.81
2019-02-28T01:15:16.827Z,6.80
2019-02-28T01:16:19.323Z,6.84
2019-02-28T01:17:16.798Z,6.91
2019-02-28T01:18:16.795Z,6.87
2019-02-28T01:19:16.839Z,6.80
2019-02-28T01:20:16.868Z,6.77
2019-02-28T01:21:16.819Z,6.76
2019-02-28T01:22:16.742Z,6.79
2019-02-28T01:23:16.739Z,6.80
2019-02-28T01:24:16.712Z,6.76
2019-02-28T01:25:16.704Z,6.85
2019-02-28T01:26:16.720Z,6.79
2019-02-28T01:27:17.377Z,6.79
2019-02-28T01:28:16.681Z,6.77
2019-02-28T01:29:16.668Z,6.81
2019-02-28T01:30:16.715Z,6.79
2019-02-28T01:31:16.723Z,6.79
2019-02-28T01:32:16.656Z,6.67
2019-02-28T01:33:16.664Z,6.61
2019-02-28T01:34:16.601Z,6.64
2019-02-28T01:35:16.688Z,6.67
2019-02-28T01:36:16.641Z,6.56
2019-02-28T01:37:16.590Z,6.56
2019-02-28T01:38:16.599Z,6.52
2019-02-28T01:39:16.551Z,6.58
2019-02-28T01:40:16.574Z,6.58
2019-02-28T01:41:16.572Z,6.49
2019-02-28T01:42:19.970Z,6.49
2019-02-28T01:43:16.505Z,6.49
2019-02-28T01:44:16.512Z,6.52
2019-02-28T01:45:16.526Z,6.61
2019-02-28T01:46:17.208Z,6.52
2019-02-28T01:47:19.953Z,6.51
2019-02-28T01:48:16.455Z,6.52
2019-02-28T01:49:16.454Z,6.49
2019-02-28T01:50:16.459Z,6.56
2019-02-28T01:51:16.445Z,6.54
2019-02-28T01:52:16.472Z,6.61
2019-02-28T01:53:19.571Z,6.56
2019-02-28T01:54:17.464Z,6.55
2019-02-28T01:55:16.384Z,6.52
2019-02-28T01:56:16.372Z,6.46
2019-02-28T01:57:16.420Z,6.54
2019-02-28T01:58:17.384Z,6.54
2019-02-28T01:59:16.401Z,6.54
2019-02-28T02:00:16.348Z,6.54
2019-02-28T02:01:16.314Z,6.48
2019-02-28T02:02:16.303Z,6.33
2019-02-28T02:03:16.418Z,6.37
2019-02-28T02:04:16.283Z,6.36
2019-02-28T02:05:17.303Z,6.36
2019-02-28T02:06:16.275Z,6.36
2019-02-28T02:07:16.287Z,6.27
2019-02-28T02:08:16.307Z,6.37
2019-02-28T02:09:16.228Z,6.27
2019-02-28T02:10:17.605Z,6.31
2019-02-28T02:11:16.270Z,6.28
2019-02-28T02:12:16.192Z,6.34
2019-02-28T02:13:16.274Z,6.33
2019-02-28T02:14:16.179Z,6.25
2019-02-28T02:15:16.887Z,6.33
2019-02-28T02:16:16.149Z,6.37
2019-02-28T02:17:16.215Z,6.31
2019-02-28T02:18:16.141Z,6.25
2019-02-28T02:19:18.550Z,6.25
2019-02-28T02:20:16.103Z,6.18
2019-02-28T02:21:16.150Z,6.17
2019-02-28T02:22:16.174Z,6.08
2019-02-28T02:23:18.210Z,6.08
2019-02-28T02:24:16.183Z,6.14
2019-02-28T02:25:16.088Z,6.08
2019-02-28T02:26:16.073Z,6.08
2019-02-28T02:27:16.253Z,6.09
2019-02-28T02:28:16.091Z,5.99
2019-02-28T02:29:16.070Z,5.99
2019-02-28T02:30:16.326Z,5.96
2019-02-28T02:31:15.994Z,5.86
2019-02-28T02:32:15.995Z,5.94
2019-02-28T02:33:16.002Z,5.76
2019-02-28T02:34:15.993Z,5.90
2019-02-28T02:35:15.963Z,5.83
2019-02-28T02:36:17.520Z,5.85
2019-02-28T02:37:15.949Z,5.90
2019-02-28T02:38:15.917Z,5.85
2019-02-28T02:39:17.590Z,5.82
2019-02-28T02:40:15.952Z,5.83
2019-02-28T02:41:15.878Z,5.81
2019-02-28T02:42:15.916Z,5.85
2019-02-28T02:43:15.869Z,5.76
2019-02-28T02:44:15.869Z,5.89
2019-02-28T02:45:15.868Z,5.86
2019-02-28T02:46:20.185Z,5.86
2019-02-28T02:47:16.821Z,5.90
2019-02-28T02:48:15.836Z,5.90
2019-02-28T02:49:19.902Z,5.81
2019-02-28T02:50:15.825Z,5.82
2019-02-28T02:51:15.774Z,5.79
2019-02-28T02:52:15.776Z,5.81
2019-02-28T02:53:15.756Z,5.65
2019-02-28T02:54:19.694Z,5.64
2019-02-28T02:55:15.804Z,5.61
2019-02-28T02:56:15.738Z,5.56
2019-02-28T02:57:15.851Z,5.53
2019-02-28T02:58:15.693Z,5.49
2019-02-28T02:59:15.717Z,5.49
2019-02-28T03:00:15.778Z,5.65
2019-02-28T03:01:15.660Z,5.67
2019-02-28T03:02:15.671Z,5.68
2019-02-28T03:03:15.647Z,5.71
2019-02-28T03:04:21.447Z,5.74
2019-02-28T03:05:16.669Z,5.76
2019-02-28T03:06:15.627Z,5.72
2019-02-28T03:07:23.318Z,5.68
2019-02-28T03:08:16.594Z,5.68
2019-02-28T03:09:15.589Z,5.64
2019-02-28T03:10:17.290Z,5.65
2019-02-28T03:11:15.579Z,5.64
2019-02-28T03:12:15.572Z,5.64
2019-02-28T03:13:15.537Z,5.68
2019-02-28T03:14:17.315Z,5.60
2019-02-28T03:15:15.515Z,5.57
2019-02-28T03:16:15.587Z,5.54
2019-02-28T03:17:15.485Z,5.53
2019-02-28T03:18:20.576Z,5.53
2019-02-28T03:19:16.475Z,5.54
2019-02-28T03:20:15.461Z,5.56
2019-02-28T03:21:16.506Z,5.51
2019-02-28T03:22:15.518Z,5.57
2019-02-28T03:23:15.446Z,5.54
2019-02-28T03:24:16.429Z,5.53
2019-02-28T03:25:15.410Z,5.54
2019-02-28T03:26:15.453Z,5.51
2019-02-28T03:27:19.083Z,5.51
2019-02-28T03:28:15.371Z,5.48
2019-02-28T03:29:15.397Z,5.46
2019-02-28T03:30:26.044Z,5.43
2019-02-28T03:31:16.405Z,5.36
2019-02-28T03:32:15.400Z,5.42
2019-02-28T03:33:27.393Z,5.40
2019-02-28T03:34:16.369Z,5.40
2019-02-28T03:35:15.308Z,5.31
2019-02-28T03:36:16.711Z,5.31
2019-02-28T03:37:15.297Z,5.27
2019-02-28T03:38:15.319Z,5.22
2019-02-28T03:39:15.283Z,5.22
2019-02-28T03:40:15.252Z,5.20
2019-02-28T03:41:17.758Z,5.10
2019-02-28T03:42:15.233Z,5.10
2019-02-28T03:43:15.295Z,5.06
2019-02-28T03:44:19.803Z,5.15
2019-02-28T03:45:16.238Z,5.00
2019-02-28T03:46:15.197Z,5.09
2019-02-28T03:47:15.165Z,5.07
2019-02-28T03:48:15.178Z,5.10
2019-02-28T03:49:15.208Z,5.12
2019-02-28T03:50:15.170Z,5.02
2019-02-28T03:51:15.138Z,5.02
2019-02-28T03:52:15.127Z,4.97
2019-02-28T03:53:19.232Z,5.02
2019-02-28T03:54:16.212Z,4.97
2019-02-28T03:55:15.114Z,4.97
2019-02-28T03:56:16.029Z,4.94
2019-02-28T03:57:15.055Z,4.86
2019-02-28T03:58:15.078Z,4.92
2019-02-28T03:59:18.933Z,4.85
2019-02-28T04:00:16.092Z,4.84
2019-02-28T04:01:15.004Z,4.84
2019-02-28T04:02:20.801Z,4.84
2019-02-28T04:03:16.687Z,4.82
2019-02-28T04:04:14.969Z,4.88
2019-02-28T04:05:14.977Z,4.84
2019-02-28T04:06:14.950Z,4.91
2019-02-28T04:07:15.983Z,4.80
2019-02-28T04:08:14.989Z,4.80
2019-02-28T04:09:14.961Z,4.78
2019-02-28T04:10:16.787Z,4.88
2019-02-28T04:11:15.921Z,4.80
2019-02-28T04:12:14.937Z,4.86
2019-02-28T04:13:19.310Z,4.82
2019-02-28T04:14:15.986Z,4.88
2019-02-28T04:15:14.879Z,4.96
2019-02-28T04:16:14.918Z,4.85
2019-02-28T04:17:14.857Z,4.80
2019-02-28T04:18:14.830Z,4.86
2019-02-28T04:19:21.209Z,4.85
2019-02-28T04:20:15.888Z,4.86
2019-02-28T04:21:14.803Z,4.84
2019-02-28T04:22:14.851Z,4.77
2019-02-28T04:23:14.773Z,4.84
2019-02-28T04:24:14.768Z,4.84
2019-02-28T04:25:14.842Z,4.85
2019-02-28T04:26:14.829Z,4.85
2019-02-28T04:27:14.737Z,4.84
2019-02-28T04:28:18.718Z,4.82
2019-02-28T04:29:14.763Z,4.84
2019-02-28T04:30:14.698Z,4.77
2019-02-28T04:31:18.725Z,4.85
2019-02-28T04:32:15.681Z,4.78
2019-02-28T04:33:14.663Z,4.84
2019-02-28T04:34:14.711Z,4.85
2019-02-28T04:35:14.640Z,4.88
2019-02-28T04:36:14.690Z,4.85
2019-02-28T04:37:14.619Z,4.91
2019-02-28T04:38:14.611Z,4.89
2019-02-28T04:39:14.619Z,4.91
2019-02-28T04:40:14.627Z,4.96
2019-02-28T04:41:14.670Z,4.94
2019-02-28T04:42:14.565Z,4.91
2019-02-28T04:43:14.564Z,4.94
2019-02-28T04:44:15.364Z,4.91
2019-02-28T04:45:14.554Z,4.88
2019-02-28T04:46:15.376Z,4.86
2019-02-28T04:47:14.622Z,4.84
2019-02-28T04:48:14.692Z,4.86
2019-02-28T04:49:14.500Z,4.89
2019-02-28T04:50:14.538Z,4.96
2019-02-28T04:51:14.506Z,4.92
2019-02-28T04:52:14.453Z,4.88
2019-02-28T04:53:14.440Z,4.97
2019-02-28T04:54:14.500Z,4.97
2019-02-28T04:55:14.542Z,4.89
2019-02-28T04:56:14.453Z,4.97
2019-02-28T04:57:17.426Z,4.96
2019-02-28T04:58:15.503Z,4.99
2019-02-28T04:59:14.400Z,4.89
2019-02-28T05:00:14.379Z,4.89
2019-02-28T05:01:14.406Z,4.94
2019-02-28T05:02:19.616Z,4.92
2019-02-28T05:03:15.334Z,4.80
2019-02-28T05:04:14.349Z,4.84
2019-02-28T05:05:14.345Z,4.82
2019-02-28T05:06:14.315Z,4.78
2019-02-28T05:07:14.317Z,4.70
2019-02-28T05:08:14.281Z,4.75
2019-02-28T05:09:15.114Z,4.67
2019-02-28T05:10:14.290Z,4.66
2019-02-28T05:11:14.296Z,4.73
2019-02-28T05:12:14.403Z,4.72
2019-02-28T05:13:14.946Z,4.70
2019-02-28T05:14:14.208Z,4.70
2019-02-28T05:15:14.275Z,4.69
2019-02-28T05:16:14.224Z,4.69
2019-02-28T05:17:14.293Z,4.70
2019-02-28T05:18:14.174Z,4.70
2019-02-28T05:19:14.185Z,4.69
2019-02-28T05:20:14.150Z,4.67
2019-02-28T05:21:16.472Z,4.65
2019-02-28T05:22:15.184Z,4.55
2019-02-28T05:23:14.115Z,4.63
2019-02-28T05:24:14.132Z,4.55
2019-02-28T05:25:17.796Z,4.58
2019-02-28T05:26:14.083Z,4.54
2019-02-28T05:27:14.067Z,4.55
2019-02-28T05:28:14.129Z,4.60
2019-02-28T05:29:14.055Z,4.58
2019-02-28T05:30:17.987Z,4.60
2019-02-28T05:31:15.043Z,4.65
2019-02-28T05:32:14.080Z,4.59
2019-02-28T05:33:14.889Z,4.60
2019-02-28T05:34:15.963Z,4.55
2019-02-28T05:35:14.039Z,4.59
2019-02-28T05:36:14.011Z,4.52
2019-02-28T05:37:13.965Z,4.50
2019-02-28T05:38:14.071Z,4.48
2019-02-28T05:39:14.010Z,4.45
2019-02-28T05:40:13.941Z,4.36
2019-02-28T05:41:15.345Z,4.47
2019-02-28T05:42:13.967Z,4.41
2019-02-28T05:43:13.934Z,4.34
2019-02-28T05:44:13.899Z,4.36
2019-02-28T05:45:14.889Z,4.37
2019-02-28T05:46:13.891Z,4.34
2019-02-28T05:47:13.886Z,4.36
2019-02-28T05:48:13.887Z,4.42
2019-02-28T05:49:13.864Z,4.34
2019-02-28T05:50:16.598Z,4.34
2019-02-28T05:51:13.868Z,4.33
2019-02-28T05:52:13.805Z,4.32
2019-02-28T05:53:13.832Z,4.33
2019-02-28T05:54:16.931Z,4.23
2019-02-28T05:55:13.774Z,4.20
2019-02-28T05:56:13.777Z,4.30
2019-02-28T05:57:13.745Z,4.23
2019-02-28T05:58:17.573Z,4.20
2019-02-28T05:59:13.725Z,4.23
2019-02-28T06:00:13.803Z,4.27
2019-02-28T06:01:13.748Z,4.23
2019-02-28T06:02:13.703Z,4.29
2019-02-28T06:03:13.705Z,4.40
2019-02-28T06:04:13.679Z,4.30
2019-02-28T06:05:13.685Z,4.33
2019-02-28T06:06:13.661Z,4.29
2019-02-28T06:07:13.661Z,4.29
2019-02-28T06:08:13.672Z,4.16
2019-02-28T06:09:14.739Z,4.22
2019-02-28T06:10:13.704Z,4.30
2019-02-28T06:11:15.297Z,4.22
2019-02-28T06:12:13.591Z,4.24
2019-02-28T06:13:15.354Z,4.37
2019-02-28T06:14:13.590Z,4.30
2019-02-28T06:15:13.558Z,4.33
2019-02-28T06:16:13.557Z,4.30
2019-02-28T06:17:13.544Z,4.33
2019-02-28T06:18:13.545Z,4.37
2019-02-28T06:19:13.576Z,4.27
2019-02-28T06:20:16.523Z,4.34
2019-02-28T06:21:13.487Z,4.40
2019-02-28T06:22:13.481Z,4.30
2019-02-28T06:23:13.476Z,4.29
2019-02-28T06:24:13.595Z,4.32
2019-02-28T06:25:22.180Z,4.27
2019-02-28T06:26:14.455Z,4.41
2019-02-28T06:27:13.419Z,4.18
2019-02-28T06:28:13.413Z,4.26
2019-02-28T06:29:13.408Z,4.29
2019-02-28T06:30:13.431Z,4.33
2019-02-28T06:31:14.301Z,4.26
2019-02-28T06:32:13.738Z,4.34
2019-02-28T06:33:13.360Z,4.32
2019-02-28T06:34:13.436Z,4.26
2019-02-28T06:35:15.927Z,4.33
2019-02-28T06:36:13.901Z,4.34
2019-02-28T06:37:13.498Z,4.34
2019-02-28T06:38:16.231Z,4.42
2019-02-28T06:39:14.333Z,4.42
2019-02-28T06:40:13.368Z,4.42
2019-02-28T06:41:13.348Z,4.29
2019-02-28T06:42:13.251Z,4.40
2019-02-28T06:43:14.179Z,4.41
2019-02-28T06:44:13.277Z,4.40
2019-02-28T06:45:13.230Z,4.36
2019-02-28T06:46:13.246Z,4.37
2019-02-28T06:47:14.250Z,4.54
2019-02-28T06:48:13.211Z,4.58
2019-02-28T06:49:13.219Z,4.66
2019-02-28T06:50:13.793Z,4.72
2019-02-28T06:51:13.189Z,4.82
2019-02-28T06:52:13.164Z,4.89
2019-02-28T06:53:13.130Z,4.99
2019-02-28T06:54:13.163Z,4.99
2019-02-28T06:55:13.371Z,5.04
2019-02-28T06:56:13.172Z,5.06
2019-02-28T06:57:13.119Z,5.17
2019-02-28T06:58:13.076Z,5.07
2019-02-28T06:59:13.071Z,5.21
2019-02-28T07:00:14.231Z,5.25
2019-02-28T07:01:13.067Z,5.22
2019-02-28T07:02:13.072Z,5.35
2019-02-28T07:03:13.082Z,5.36
2019-02-28T07:04:14.536Z,5.46
2019-02-28T07:05:13.020Z,5.43
2019-02-28T07:06:13.022Z,5.35
2019-02-28T07:07:13.708Z,5.45
2019-02-28T07:08:13.102Z,5.39
2019-02-28T07:09:12.959Z,5.46
2019-02-28T07:10:13.395Z,5.49
2019-02-28T07:11:12.951Z,5.53
2019-02-28T07:12:13.329Z,5.51
2019-02-28T07:13:12.962Z,5.65
2019-02-28T07:14:13.767Z,5.67
2019-02-28T07:15:12.894Z,5.75
2019-02-28T07:16:12.902Z,5.78
2019-02-28T07:17:12.873Z,5.86
2019-02-28T07:18:12.883Z,5.86
2019-02-28T07:19:12.846Z,5.99
2019-02-28T07:20:12.831Z,5.85
2019-02-28T07:21:12.826Z,5.99
2019-02-28T07:22:19.249Z,6.11
2019-02-28T07:23:13.825Z,6.12
2019-02-28T07:24:13.001Z,6.15
2019-02-28T07:25:13.830Z,6.28
2019-02-28T07:26:12.783Z,6.59
2019-02-28T07:27:12.812Z,6.61
2019-02-28T07:28:12.799Z,6.81
2019-02-28T07:29:12.751Z,6.81
2019-02-28T07:30:17.286Z,6.94
2019-02-28T07:31:13.733Z,7.05
2019-02-28T07:32:12.785Z,7.06
2019-02-28T07:33:12.726Z,7.06
2019-02-28T07:34:12.720Z,7.03
2019-02-28T07:35:12.695Z,7.27
2019-02-28T07:36:12.658Z,7.21
2019-02-28T07:37:12.670Z,7.25
2019-02-28T07:38:12.743Z,7.28
2019-02-28T07:39:12.628Z,7.39
2019-02-28T07:40:16.018Z,7.31
2019-02-28T07:41:12.604Z,7.37
2019-02-28T07:42:12.633Z,7.52
2019-02-28T07:43:13.263Z,7.48
2019-02-28T07:44:12.599Z,7.32
2019-02-28T07:45:12.673Z,7.35
2019-02-28T07:46:12.582Z,7.49
2019-02-28T07:47:17.172Z,7.49
2019-02-28T07:48:12.530Z,7.61
2019-02-28T07:49:12.603Z,7.97
2019-02-28T07:50:12.513Z,8.01
2019-02-28T07:51:12.497Z,7.86
2019-02-28T07:52:12.508Z,8.04
2019-02-28T07:53:12.493Z,8.00
2019-02-28T07:54:15.837Z,8.15
2019-02-28T07:55:12.481Z,8.45
2019-02-28T07:56:12.449Z,8.40
2019-02-28T07:57:17.007Z,8.50
2019-02-28T07:58:13.502Z,8.47
2019-02-28T07:59:12.475Z,8.41
2019-02-28T08:00:16.828Z,8.55
2019-02-28T08:01:13.386Z,8.84
2019-02-28T08:02:12.509Z,9.15
2019-02-28T08:03:12.370Z,9.42
2019-02-28T08:04:12.440Z,8.91
2019-02-28T08:05:12.405Z,8.99
2019-02-28T08:06:12.346Z,8.76
2019-02-28T08:07:14.877Z,9.05
2019-02-28T08:08:13.272Z,9.36
2019-02-28T08:09:12.309Z,9.60
2019-02-28T08:10:12.814Z,9.53
2019-02-28T08:11:12.337Z,9.35
2019-02-28T08:12:12.313Z,9.13
2019-02-28T08:13:12.293Z,9.23
2019-02-28T08:14:12.948Z,9.11
2019-02-28T08:15:13.652Z,9.18
2019-02-28T08:16:12.250Z,8.73
2019-02-28T08:17:12.243Z,8.94
2019-02-28T08:18:12.211Z,9.11
2019-02-28T08:19:12.223Z,8.92
2019-02-28T08:20:12.200Z,9.26
2019-02-28T08:21:12.213Z,9.28
2019-02-28T08:22:12.160Z,9.54
2019-02-28T08:23:12.780Z,9.93
2019-02-28T08:24:12.160Z,9.58
2019-02-28T08:25:12.131Z,9.14
2019-02-28T08:26:15.534Z,8.34
2019-02-28T08:27:13.115Z,7.55
2019-02-28T08:28:12.093Z,7.31
2019-02-28T08:29:12.086Z,7.05
2019-02-28T08:30:12.146Z,7.13
2019-02-28T08:31:12.146Z,7.21
2019-02-28T08:32:12.094Z,7.20
2019-02-28T08:33:12.042Z,7.17
2019-02-28T08:34:12.347Z,7.07
2019-02-28T08:35:12.020Z,6.98
2019-02-28T08:36:12.719Z,6.79
2019-02-28T08:37:11.995Z,6.80
2019-02-28T08:38:11.998Z,6.74
2019-02-28T08:39:12.073Z,6.88
2019-02-28T08:40:12.554Z,6.98
2019-02-28T08:41:11.986Z,7.13
2019-02-28T08:42:12.017Z,7.35
2019-02-28T08:43:13.559Z,7.35
2019-02-28T08:44:12.018Z,7.32
2019-02-28T08:45:11.986Z,7.12
2019-02-28T08:46:13.724Z,7.20
2019-02-28T08:47:11.910Z,7.32
2019-02-28T08:48:12.768Z,7.46
2019-02-28T08:49:11.892Z,7.31
2019-02-28T08:50:11.866Z,7.21
2019-02-28T08:51:11.848Z,7.27
2019-02-28T08:52:12.290Z,7.40
2019-02-28T08:53:12.379Z,7.39
2019-02-28T08:54:11.818Z,7.24
2019-02-28T08:55:11.797Z,7.30
2019-02-28T08:56:14.038Z,7.23
2019-02-28T08:57:13.000Z,7.17
2019-02-28T08:58:11.815Z,7.34
2019-02-28T08:59:12.229Z,7.28
2019-02-28T09:00:11.751Z,7.27
2019-02-28T09:01:12.234Z,7.21
2019-02-28T09:02:14.544Z,7.40
2019-02-28T09:03:12.711Z,7.52
2019-02-28T09:04:11.737Z,7.55
2019-02-28T09:05:11.730Z,7.53
2019-02-28T09:06:11.713Z,7.50
2019-02-28T09:07:14.833Z,7.45
2019-02-28T09:08:14.551Z,7.43
2019-02-28T09:09:11.678Z,7.46
2019-02-28T09:10:12.670Z,7.43
2019-02-28T09:11:11.695Z,7.40
2019-02-28T09:12:11.677Z,7.55
2019-02-28T09:13:11.669Z,7.68
2019-02-28T09:14:14.691Z,7.68
2019-02-28T09:15:12.882Z,7.71
2019-02-28T09:16:11.605Z,7.90
2019-02-28T09:17:11.669Z,7.93
2019-02-28T09:18:12.439Z,8.11
2019-02-28T09:19:11.589Z,8.20
2019-02-28T09:20:11.562Z,8.20
2019-02-28T09:21:15.347Z,8.47
2019-02-28T09:22:11.515Z,8.86
2019-02-28T09:23:11.567Z,9.10
2019-02-28T09:24:12.525Z,9.10
2019-02-28T09:25:22.907Z,9.42
2019-02-28T09:26:16.340Z,9.08
2019-02-28T09:27:12.265Z,9.08
2019-02-28T09:28:13.147Z,9.71
2019-02-28T09:29:11.433Z,10.34
2019-02-28T09:30:11.415Z,10.96
2019-02-28T09:31:11.412Z,10.78
2019-02-28T09:32:13.618Z,11.29
2019-02-28T09:33:11.420Z,11.83
2019-02-28T09:34:11.367Z,10.94
2019-02-28T09:35:14.436Z,11.14
2019-02-28T09:36:11.346Z,11.15
2019-02-28T09:37:11.357Z,11.06
2019-02-28T09:38:13.586Z,11.49
2019-02-28T09:39:12.257Z,11.52
2019-02-28T09:40:11.340Z,11.33
2019-02-28T09:41:11.304Z,10.78
2019-02-28T09:42:14.757Z,10.42
2019-02-28T09:43:11.275Z,10.82
2019-02-28T09:44:11.265Z,10.40
2019-02-28T09:45:11.300Z,10.08
2019-02-28T09:46:12.424Z,10.05
2019-02-28T09:47:11.826Z,10.08
2019-02-28T09:48:11.241Z,10.60
2019-02-28T09:49:12.860Z,10.22
2019-02-28T09:50:11.270Z,10.36
2019-02-28T09:51:11.189Z,10.70
2019-02-28T09:52:11.176Z,10.48
2019-02-28T09:53:15.563Z,10.32
2019-02-28T09:54:11.153Z,10.26
2019-02-28T09:55:11.139Z,10.92
2019-02-28T09:56:11.184Z,11.07
2019-02-28T09:57:11.113Z,11.11
2019-02-28T09:58:11.103Z,10.89
2019-02-28T09:59:11.096Z,11.10
2019-02-28T10:00:11.840Z,11.60
2019-02-28T10:01:11.331Z,10.99
2019-02-28T10:02:11.066Z,10.70
2019-02-28T10:03:11.052Z,11.49
2019-02-28T10:04:11.074Z,12.05
2019-02-28T10:05:11.790Z,12.56
2019-02-28T10:06:16.422Z,13.32
2019-02-28T10:07:11.017Z,13.17
2019-02-28T10:08:11.051Z,12.97
2019-02-28T10:09:11.048Z,13.28
2019-02-28T10:10:10.997Z,12.41
2019-02-28T10:11:11.001Z,11.52
2019-02-28T10:12:11.103Z,11.60
2019-02-28T10:13:10.941Z,11.29
2019-02-28T10:14:12.216Z,11.10
2019-02-28T10:15:10.920Z,10.68
2019-02-28T10:16:13.610Z,10.97
2019-02-28T10:17:11.907Z,11.95
2019-02-28T10:18:10.902Z,12.56
2019-02-28T10:19:13.459Z,11.83
2019-02-28T10:20:10.878Z,11.46
2019-02-28T10:21:10.883Z,11.14
2019-02-28T10:22:12.884Z,11.39
2019-02-28T10:23:10.904Z,12.27
2019-02-28T10:24:10.937Z,12.64
2019-02-28T10:25:10.954Z,13.52
2019-02-28T10:26:10.815Z,14.18
2019-02-28T10:27:26.742Z,15.13
2019-02-28T10:28:10.779Z,14.98
2019-02-28T10:29:10.781Z,14.75
2019-02-28T10:30:15.514Z,14.37
2019-02-28T10:31:11.752Z,14.80
2019-02-28T10:32:10.748Z,14.94
2019-02-28T10:33:17.347Z,14.70
2019-02-28T10:34:10.755Z,14.39
2019-02-28T10:35:10.700Z,14.88
2019-02-28T10:36:13.020Z,14.06
2019-02-28T10:37:10.686Z,12.31
2019-02-28T10:38:10.710Z,12.54
2019-02-28T10:39:10.655Z,12.56
2019-02-28T10:40:10.681Z,12.13
2019-02-28T10:41:10.643Z,12.57
2019-02-28T10:42:10.640Z,12.93
2019-02-28T10:43:12.186Z,12.34
2019-02-28T10:44:11.468Z,12.57
2019-02-28T10:45:10.633Z,13.12
2019-02-28T10:46:13.317Z,13.41
2019-02-28T10:47:11.572Z,13.64
2019-02-28T10:48:10.581Z,13.55
2019-02-28T10:49:39.948Z,13.97
2019-02-28T10:50:10.545Z,14.40
2019-02-28T10:51:13.914Z,14.14
2019-02-28T10:52:10.542Z,14.94
2019-02-28T10:53:10.524Z,14.94
2019-02-28T10:54:14.551Z,15.19
2019-02-28T10:55:10.497Z,15.09
2019-02-28T10:56:10.505Z,14.83
2019-02-28T10:57:10.473Z,14.35
2019-02-28T10:58:12.429Z,14.61
2019-02-28T10:59:11.452Z,14.70
2019-02-28T11:00:10.456Z,15.02
2019-02-28T11:01:10.736Z,15.51
2019-02-28T11:02:13.480Z,15.62
2019-02-28T11:03:11.404Z,15.60
2019-02-28T11:04:10.990Z,16.08
2019-02-28T11:05:10.373Z,15.69
2019-02-28T11:06:10.375Z,15.76
2019-02-28T11:07:26.386Z,15.49
2019-02-28T11:08:12.848Z,15.59
2019-02-28T11:09:10.349Z,16.35
2019-02-28T11:10:10.325Z,16.49
2019-02-28T11:11:10.526Z,16.27
2019-02-28T11:12:10.308Z,16.01
2019-02-28T11:13:10.425Z,15.16
2019-02-28T11:14:10.304Z,15.47
2019-02-28T11:15:13.733Z,15.13
2019-02-28T11:16:10.296Z,15.32
2019-02-28T11:17:13.719Z,15.29
2019-02-28T11:18:10.311Z,15.01
2019-02-28T11:19:18.643Z,14.14
2019-02-28T11:20:10.212Z,13.77
2019-02-28T11:21:10.205Z,13.14
2019-02-28T11:22:10.190Z,13.15
2019-02-28T11:23:14.365Z,13.30
2019-02-28T11:24:10.202Z,13.25
2019-02-28T11:25:10.161Z,13.54
2019-02-28T11:26:10.457Z,13.52
2019-02-28T11:27:10.419Z,13.28
2019-02-28T11:28:10.127Z,14.02
2019-02-28T11:29:10.145Z,13.75
2019-02-28T11:30:10.818Z,13.44
2019-02-28T11:31:11.213Z,13.59
2019-02-28T11:32:10.079Z,13.39
2019-02-28T11:33:10.072Z,13.25
2019-02-28T11:34:11.601Z,13.62
2019-02-28T11:35:10.104Z,13.79
2019-02-28T11:36:10.151Z,13.36
2019-02-28T11:37:10.022Z,13.48
2019-02-28T11:38:10.259Z,12.97
2019-02-28T11:39:20.315Z,12.65
2019-02-28T11:40:09.997Z,12.41
2019-02-28T11:41:09.985Z,12.27
2019-02-28T11:42:09.972Z,12.04
2019-02-28T11:43:09.956Z,11.96
2019-02-28T11:44:12.018Z,12.13
2019-02-28T11:45:09.979Z,12.29
2019-02-28T11:46:09.924Z,12.32
2019-02-28T11:47:11.203Z,12.16
2019-02-28T11:48:09.933Z,12.05
2019-02-28T11:49:09.934Z,11.98
2019-02-28T11:50:09.932Z,12.09
2019-02-28T11:51:09.954Z,12.28
2019-02-28T11:52:09.870Z,12.31
2019-02-28T11:53:09.889Z,12.16
2019-02-28T11:54:12.307Z,11.88
2019-02-28T11:55:09.885Z,11.83
2019-02-28T11:56:09.813Z,11.90
2019-02-28T11:57:09.806Z,11.96
2019-02-28T11:58:09.819Z,11.96
2019-02-28T11:59:09.865Z,12.02
2019-02-28T12:00:09.795Z,12.21
2019-02-28T12:01:10.663Z,12.14
2019-02-28T12:02:09.791Z,12.16
2019-02-28T12:03:09.759Z,12.29
2019-02-28T12:04:09.736Z,12.28
2019-02-28T12:05:12.287Z,11.99
2019-02-28T12:06:10.724Z,11.98
2019-02-28T12:07:09.708Z,12.20
2019-02-28T12:08:10.691Z,12.27
2019-02-28T12:09:09.720Z,12.32
2019-02-28T12:10:09.750Z,12.21
2019-02-28T12:11:09.648Z,12.20
2019-02-28T12:12:10.426Z,12.32
2019-02-28T12:13:09.654Z,12.57
2019-02-28T12:14:09.648Z,12.45
2019-02-28T12:15:09.612Z,12.31
2019-02-28T12:16:09.618Z,12.24
2019-02-28T12:17:09.588Z,12.46
2019-02-28T12:18:09.599Z,12.53
2019-02-28T12:19:12.455Z,12.62
2019-02-28T12:20:10.562Z,12.82
2019-02-28T12:21:09.582Z,12.64
2019-02-28T12:22:12.108Z,12.87
2019-02-28T12:23:09.546Z,12.92
2019-02-28T12:24:09.510Z,13.17
2019-02-28T12:25:09.494Z,13.22
2019-02-28T12:26:09.536Z,13.30
2019-02-28T12:27:09.508Z,13.51
2019-02-28T12:28:09.465Z,13.64
2019-02-28T12:29:12.821Z,13.54
2019-02-28T12:30:09.441Z,13.87
2019-02-28T12:31:09.452Z,14.07
2019-02-28T12:32:11.224Z,14.25
2019-02-28T12:33:09.433Z,13.92
2019-02-28T12:34:09.402Z,13.64
2019-02-28T12:35:09.388Z,13.81
2019-02-28T12:36:11.215Z,13.69
2019-02-28T12:37:09.367Z,13.82
2019-02-28T12:38:09.380Z,14.24
2019-02-28T12:39:09.404Z,14.22
2019-02-28T12:40:10.335Z,13.87
2019-02-28T12:41:09.365Z,14.06
2019-02-28T12:42:09.326Z,14.55
2019-02-28T12:43:09.700Z,15.14
2019-02-28T12:44:09.299Z,14.92
2019-02-28T12:45:09.291Z,15.09
2019-02-28T12:46:09.366Z,15.20
2019-02-28T12:47:09.294Z,14.83
2019-02-28T12:48:09.281Z,14.47
2019-02-28T12:49:09.242Z,14.32
2019-02-28T12:50:09.231Z,14.45
2019-02-28T12:51:09.298Z,14.94
2019-02-28T12:52:11.307Z,14.42
2019-02-28T12:53:10.191Z,14.40
2019-02-28T12:54:09.183Z,14.94
2019-02-28T12:55:09.914Z,14.22
2019-02-28T12:56:11.257Z,14.06
2019-02-28T12:57:09.171Z,14.12
2019-02-28T12:58:09.171Z,14.02
2019-02-28T12:59:09.922Z,13.70
2019-02-28T13:00:09.115Z,13.38
2019-02-28T13:01:09.132Z,13.55
2019-02-28T13:02:09.125Z,13.97
2019-02-28T13:03:09.321Z,14.42
2019-02-28T13:04:09.845Z,14.47
2019-02-28T13:05:14.131Z,14.45
2019-02-28T13:06:10.049Z,14.45
2019-02-28T13:07:09.072Z,14.84
2019-02-28T13:08:09.023Z,14.54
2019-02-28T13:09:09.068Z,14.60
2019-02-28T13:10:09.011Z,14.64
2019-02-28T13:11:08.989Z,14.47